Terminal Aerodrome Forecast
Issued by NWS

Home | Current Version | Previous Version | Text Only | Print | Product List | Glossary On
Versions: 1 2 3 4 5 6 7 8 9 10 11 12 13 14 15 16
000
FTUS41 KCAR 201201 AAA
TAFBHB
TAF AMD
KBHB 201201Z 2012/2112 32005KT P6SM VCSH OVC009
     FM201800 34010G18KT P6SM OVC040
     FM202200 35010KT P6SM BKN060=

USA.gov is the U.S. government's official web portal to all federal, state and local government web resources and services.